sensor_id;sensor_type;location;lat;lon;timestamp;pressure;altitude;pressure_sealevel;temperature;humidity
9225;BME280;4647;48.072;11.616;2023-12-22T00:00:06;93759.75;;;6.42;87.22
9225;BME280;4647;48.072;11.616;2023-12-22T00:02:35;93755.72;;;6.51;86.74
9225;BME280;4647;48.072;11.616;2023-12-22T00:05:05;93748.06;;;6.49;86.09
9225;BME280;4647;48.072;11.616;2023-12-22T00:07:35;93782.19;;;6.36;86.57
9225;BME280;4647;48.072;11.616;2023-12-22T00:10:08;93775.16;;;6.42;87.05
9225;BME280;4647;48.072;11.616;2023-12-22T00:12:37;93804.13;;;6.34;88.57
9225;BME280;4647;48.072;11.616;2023-12-22T00:15:06;93813.41;;;6.13;90.10
9225;BME280;4647;48.072;11.616;2023-12-22T00:17:37;93840.59;;;5.99;92.06
9225;BME280;4647;48.072;11.616;2023-12-22T00:20:06;93846.13;;;5.92;93.13
9225;BME280;4647;48.072;11.616;2023-12-22T00:22:38;93910.06;;;5.11;92.81
9225;BME280;4647;48.072;11.616;2023-12-22T00:25:11;93921.00;;;2.92;96.31
9225;BME280;4647;48.072;11.616;2023-12-22T00:27:39;93914.28;;;1.97;98.50
9225;BME280;4647;48.072;11.616;2023-12-22T00:30:11;93899.09;;;1.79;100.00
9225;BME280;4647;48.072;11.616;2023-12-22T00:32:39;93924.59;;;1.88;100.00
9225;BME280;4647;48.072;11.616;2023-12-22T00:35:08;93913.94;;;1.88;100.00
9225;BME280;4647;48.072;11.616;2023-12-22T00:37:36;93910.59;;;1.66;100.00
9225;BME280;4647;48.072;11.616;2023-12-22T00:40:06;93902.59;;;1.55;100.00
9225;BME280;4647;48.072;11.616;2023-12-22T00:42:37;93889.66;;;1.46;100.00
9225;BME280;4647;48.072;11.616;2023-12-22T00:45:06;93901.84;;;1.40;100.00
9225;BME280;4647;48.072;11.616;2023-12-22T00:47:37;93896.91;;;1.46;100.00
9225;BME280;4647;48.072;11.616;2023-12-22T00:50:06;93908.69;;;1.59;100.00
9225;BME280;4647;48.072;11.616;2023-12-22T00:52:37;93910.97;;;1.57;100.00
9225;BME280;4647;48.072;11.616;2023-12-22T00:55:06;93934.59;;;1.59;100.00
9225;BME280;4647;48.072;11.616;2023-12-22T00:57:40;93924.31;;;1.57;100.00
9225;BME280;4647;48.072;11.616;2023-12-22T01:00:21;93931.97;;;1.51;100.00
9225;BME280;4647;48.072;11.616;2023-12-22T01:02:52;93915.97;;;1.37;100.00
9225;BME280;4647;48.072;11.616;2023-12-22T01:05:21;93927.41;;;1.31;100.00
9225;BME280;4647;48.072;11.616;2023-12-22T01:07:51;93925.16;;;1.22;100.00
9225;BME280;4647;48.072;11.616;2023-12-22T01:10:19;93923.25;;;1.22;100.00
9225;BME280;4647;48.072;11.616;2023-12-22T01:12:51;93913.31;;;1.12;100.00
9225;BME280;4647;48.072;11.616;2023-12-22T01:15:19;93924.38;;;1.14;100.00
9225;BME280;4647;48.072;11.616;2023-12-22T01:17:45;93933.50;;;1.17;100.00
9225;BME280;4647;48.072;11.616;2023-12-22T01:20:14;93928.56;;;1.15;100.00
9225;BME280;4647;48.072;11.616;2023-12-22T01:22:44;93927.81;;;1.26;100.00
9225;BME280;4647;48.072;11.616;2023-12-22T01:25:26;93933.50;;;1.35;100.00
9225;BME280;4647;48.072;11.616;2023-12-22T01:28:06;93953.31;;;1.34;100.00
9225;BME280;4647;48.072;11.616;2023-12-22T01:30:37;93943.41;;;1.38;100.00
9225;BME280;4647;48.072;11.616;2023-12-22T01:33:07;93951.81;;;1.33;100.00
9225;BME280;4647;48.072;11.616;2023-12-22T01:35:46;93956.75;;;1.31;100.00
9225;BME280;4647;48.072;11.616;2023-12-22T01:38:20;93958.69;;;1.19;100.00
9225;BME280;4647;48.072;11.616;2023-12-22T01:40:51;93954.84;;;1.17;100.00
9225;BME280;4647;48.072;11.616;2023-12-22T01:43:27;93980.78;;;1.20;100.00
9225;BME280;4647;48.072;11.616;2023-12-22T01:46:00;93972.00;;;1.16;100.00
9225;BME280;4647;48.072;11.616;2023-12-22T01:48:37;93956.00;;;1.16;100.00
9225;BME280;4647;48.072;11.616;2023-12-22T01:53:54;93945.72;;;1.11;100.00
9225;BME280;4647;48.072;11.616;2023-12-22T01:56:29;93949.91;;;1.08;100.00
9225;BME280;4647;48.072;11.616;2023-12-22T01:59:16;93942.31;;;0.96;100.00
9225;BME280;4647;48.072;11.616;2023-12-22T02:01:45;93947.25;;;0.98;100.00
9225;BME280;4647;48.072;11.616;2023-12-22T02:04:17;93933.16;;;1.08;100.00
9225;BME280;4647;48.072;11.616;2023-12-22T02:06:58;93929.72;;;1.11;100.00
9225;BME280;4647;48.072;11.616;2023-12-22T02:09:30;93946.09;;;1.09;100.00
9225;BME280;4647;48.072;11.616;2023-12-22T02:12:07;93942.66;;;0.91;100.00
9225;BME280;4647;48.072;11.616;2023-12-22T02:14:54;93947.63;;;1.03;100.00
9225;BME280;4647;48.072;11.616;2023-12-22T02:17:37;93954.88;;;0.99;100.00
9225;BME280;4647;48.072;11.616;2023-12-22T02:20:11;93962.88;;;0.96;100.00
9225;BME280;4647;48.072;11.616;2023-12-22T02:23:07;93960.22;;;0.96;100.00
9225;BME280;4647;48.072;11.616;2023-12-22T02:25:38;93967.41;;;0.81;100.00
9225;BME280;4647;48.072;11.616;2023-12-22T02:28:17;93969.31;;;0.84;100.00
9225;BME280;4647;48.072;11.616;2023-12-22T02:31:08;93966.63;;;0.70;100.00
9225;BME280;4647;48.072;11.616;2023-12-22T02:34:20;93940.75;;;0.74;100.00
9225;BME280;4647;48.072;11.616;2023-12-22T02:37:41;93936.56;;;0.73;100.00
9225;BME280;4647;48.072;11.616;2023-12-22T02:43:35;93916.38;;;0.86;100.00
9225;BME280;4647;48.072;11.616;2023-12-22T02:46:13;93933.53;;;0.92;100.00
9225;BME280;4647;48.072;11.616;2023-12-22T02:48:44;93932.38;;;0.93;100.00
9225;BME280;4647;48.072;11.616;2023-12-22T02:51:13;93942.31;;;0.96;100.00
9225;BME280;4647;48.072;11.616;2023-12-22T02:53:44;93943.81;;;1.01;100.00
9225;BME280;4647;48.072;11.616;2023-12-22T02:56:15;93907.66;;;0.96;100.00
9225;BME280;4647;48.072;11.616;2023-12-22T02:58:48;93909.13;;;1.11;100.00
9225;BME280;4647;48.072;11.616;2023-12-22T03:01:20;93911.44;;;1.09;100.00
9225;BME280;4647;48.072;11.616;2023-12-22T03:03:54;93910.69;;;1.19;100.00
9225;BME280;4647;48.072;11.616;2023-12-22T03:06:22;93911.03;;;1.25;100.00
9225;BME280;4647;48.072;11.616;2023-12-22T03:08:55;93920.56;;;1.15;100.00
9225;BME280;4647;48.072;11.616;2023-12-22T03:11:28;93892.00;;;1.19;100.00
9225;BME280;4647;48.072;11.616;2023-12-22T03:14:19;93903.03;;;1.25;100.00
9225;BME280;4647;48.072;11.616;2023-12-22T03:17:04;93901.13;;;1.29;100.00
9225;BME280;4647;48.072;11.616;2023-12-22T03:20:13;93879.78;;;1.33;100.00
9225;BME280;4647;48.072;11.616;2023-12-22T03:23:03;93875.19;;;1.33;100.00
9225;BME280;4647;48.072;11.616;2023-12-22T03:26:20;93887.69;;;1.65;100.00
9225;BME280;4647;48.072;11.616;2023-12-22T03:29:07;93881.25;;;1.51;100.00
9225;BME280;4647;48.072;11.616;2023-12-22T03:32:08;93887.75;;;1.47;100.00
9225;BME280;4647;48.072;11.616;2023-12-22T03:34:52;93889.22;;;1.66;100.00
9225;BME280;4647;48.072;11.616;2023-12-22T03:41:02;93888.44;;;1.72;100.00
9225;BME280;4647;48.072;11.616;2023-12-22T03:43:47;93887.69;;;1.68;100.00
9225;BME280;4647;48.072;11.616;2023-12-22T03:46:38;93873.94;;;1.73;100.00
9225;BME280;4647;48.072;11.616;2023-12-22T03:52:26;93871.66;;;1.75;100.00
9225;BME280;4647;48.072;11.616;2023-12-22T03:55:07;93862.53;;;1.66;100.00
9225;BME280;4647;48.072;11.616;2023-12-22T03:57:45;93861.59;;;2.04;100.00
9225;BME280;4647;48.072;11.616;2023-12-22T04:00:24;93888.59;;;2.24;100.00
9225;BME280;4647;48.072;11.616;2023-12-22T04:02:55;93870.53;;;2.46;100.00
9225;BME280;4647;48.072;11.616;2023-12-22T04:05:29;93867.75;;;2.64;100.00
9225;BME280;4647;48.072;11.616;2023-12-22T04:08:07;93876.00;;;2.80;100.00
9225;BME280;4647;48.072;11.616;2023-12-22T04:10:36;93877.75;;;3.01;100.00
9225;BME280;4647;48.072;11.616;2023-12-22T04:13:05;93879.19;;;3.13;100.00
9225;BME280;4647;48.072;11.616;2023-12-22T04:15:33;93895.06;;;3.30;100.00
9225;BME280;4647;48.072;11.616;2023-12-22T04:18:05;93887.03;;;3.34;100.00
9225;BME280;4647;48.072;11.616;2023-12-22T04:20:36;93887.34;;;3.39;99.83
9225;BME280;4647;48.072;11.616;2023-12-22T04:23:06;93879.16;;;3.54;98.18
9225;BME280;4647;48.072;11.616;2023-12-22T04:25:35;93883.75;;;3.57;98.04
9225;BME280;4647;48.072;11.616;2023-12-22T04:28:05;93896.28;;;3.63;97.71
9225;BME280;4647;48.072;11.616;2023-12-22T04:30:34;93892.91;;;3.59;97.71
9225;BME280;4647;48.072;11.616;2023-12-22T04:33:03;93878.72;;;3.62;97.14
9225;BME280;4647;48.072;11.616;2023-12-22T04:35:32;93882.38;;;3.76;96.68
9225;BME280;4647;48.072;11.616;2023-12-22T04:38:03;93888.50;;;3.76;96.35
9225;BME280;4647;48.072;11.616;2023-12-22T04:40:34;93876.31;;;3.72;96.82
9225;BME280;4647;48.072;11.616;2023-12-22T04:43:03;93873.22;;;3.73;96.25
9225;BME280;4647;48.072;11.616;2023-12-22T04:45:31;93878.22;;;3.71;96.22
9225;BME280;4647;48.072;11.616;2023-12-22T04:48:00;93866.69;;;3.74;96.41
9225;BME280;4647;48.072;11.616;2023-12-22T04:50:29;93870.38;;;3.87;96.09
9225;BME280;4647;48.072;11.616;2023-12-22T04:52:57;93876.50;;;3.88;96.19
9225;BME280;4647;48.072;11.616;2023-12-22T04:55:28;93878.03;;;3.89;96.21
9225;BME280;4647;48.072;11.616;2023-12-22T04:57:57;93875.78;;;3.84;96.07
9225;BME280;4647;48.072;11.616;2023-12-22T05:00:25;93886.06;;;3.89;95.92
9225;BME280;4647;48.072;11.616;2023-12-22T05:03:00;93897.00;;;4.01;95.12
9225;BME280;4647;48.072;11.616;2023-12-22T05:05:28;93881.56;;;4.13;94.53
9225;BME280;4647;48.072;11.616;2023-12-22T05:07:57;93865.53;;;4.09;94.02
9225;BME280;4647;48.072;11.616;2023-12-22T05:10:28;93873.44;;;4.20;93.06
9225;BME280;4647;48.072;11.616;2023-12-22T05:12:58;93877.97;;;4.26;93.32
9225;BME280;4647;48.072;11.616;2023-12-22T05:15:27;93856.34;;;4.37;92.67
9225;BME280;4647;48.072;11.616;2023-12-22T05:17:55;93871.97;;;4.42;92.89
9225;BME280;4647;48.072;11.616;2023-12-22T05:20:23;93885.69;;;4.48;91.68
9225;BME280;4647;48.072;11.616;2023-12-22T05:22:52;93882.47;;;4.60;91.80
9225;BME280;4647;48.072;11.616;2023-12-22T05:25:21;93894.41;;;4.55;91.00
9225;BME280;4647;48.072;11.616;2023-12-22T05:27:52;93900.38;;;4.67;91.19
9225;BME280;4647;48.072;11.616;2023-12-22T05:30:20;93899.06;;;4.78;89.71
9225;BME280;4647;48.072;11.616;2023-12-22T05:32:49;93899.06;;;4.78;89.69
9225;BME280;4647;48.072;11.616;2023-12-22T05:35:18;93906.66;;;4.83;89.67
9225;BME280;4647;48.072;11.616;2023-12-22T05:37:47;93908.22;;;4.81;88.71
9225;BME280;4647;48.072;11.616;2023-12-22T05:40:16;93892.13;;;4.81;89.29
9225;BME280;4647;48.072;11.616;2023-12-22T05:42:45;93919.72;;;4.81;88.91
9225;BME280;4647;48.072;11.616;2023-12-22T05:45:16;93908.53;;;4.86;88.77
9225;BME280;4647;48.072;11.616;2023-12-22T05:47:45;93902.22;;;4.97;89.69
9225;BME280;4647;48.072;11.616;2023-12-22T05:50:14;93920.94;;;4.77;89.51
9225;BME280;4647;48.072;11.616;2023-12-22T05:52:43;93928.88;;;4.57;92.32
9225;BME280;4647;48.072;11.616;2023-12-22T05:55:13;93940.53;;;4.43;93.22
9225;BME280;4647;48.072;11.616;2023-12-22T05:57:42;93942.91;;;4.38;94.28
9225;BME280;4647;48.072;11.616;2023-12-22T06:00:12;93956.91;;;4.18;95.78
9225;BME280;4647;48.072;11.616;2023-12-22T06:02:43;93964.59;;;4.16;96.51
9225;BME280;4647;48.072;11.616;2023-12-22T06:05:12;93969.34;;;4.05;97.92
9225;BME280;4647;48.072;11.616;2023-12-22T06:07:40;93953.34;;;3.94;98.57
9225;BME280;4647;48.072;11.616;2023-12-22T06:10:09;93949.13;;;3.97;99.36
9225;BME280;4647;48.072;11.616;2023-12-22T06:12:39;93953.41;;;3.91;99.97
9225;BME280;4647;48.072;11.616;2023-12-22T06:15:08;93951.41;;;3.98;100.00
9225;BME280;4647;48.072;11.616;2023-12-22T06:17:36;93943.81;;;3.93;100.00
9225;BME280;4647;48.072;11.616;2023-12-22T06:20:09;93952.19;;;3.95;100.00
9225;BME280;4647;48.072;11.616;2023-12-22T06:22:40;93978.56;;;4.00;100.00
9225;BME280;4647;48.072;11.616;2023-12-22T06:25:11;93969.34;;;4.05;100.00
9225;BME280;4647;48.072;11.616;2023-12-22T06:27:39;93986.19;;;4.02;100.00
9225;BME280;4647;48.072;11.616;2023-12-22T06:30:12;93976.97;;;4.07;100.00
9225;BME280;4647;48.072;11.616;2023-12-22T06:32:43;93977.72;;;4.07;99.87
9225;BME280;4647;48.072;11.616;2023-12-22T06:35:14;93980.72;;;4.13;100.00
9225;BME280;4647;48.072;11.616;2023-12-22T06:37:42;93982.09;;;4.28;99.34
9225;BME280;4647;48.072;11.616;2023-12-22T06:40:11;93955.25;;;4.31;98.31
9225;BME280;4647;48.072;11.616;2023-12-22T06:42:40;93959.44;;;4.32;97.81
9225;BME280;4647;48.072;11.616;2023-12-22T06:45:09;93968.91;;;4.41;96.34
9225;BME280;4647;48.072;11.616;2023-12-22T06:47:38;93968.50;;;4.42;96.74
9225;BME280;4647;48.072;11.616;2023-12-22T06:50:07;93972.66;;;4.47;95.29
9225;BME280;4647;48.072;11.616;2023-12-22T06:52:39;93956.00;;;4.62;94.75
9225;BME280;4647;48.072;11.616;2023-12-22T06:55:08;93987.84;;;4.60;94.20
9225;BME280;4647;48.072;11.616;2023-12-22T06:57:36;93971.34;;;4.62;94.26
9225;BME280;4647;48.072;11.616;2023-12-22T07:00:06;93986.72;;;4.58;93.98
9225;BME280;4647;48.072;11.616;2023-12-22T07:02:37;93992.34;;;4.67;93.87
9225;BME280;4647;48.072;11.616;2023-12-22T07:05:30;94003.53;;;4.62;94.06
9225;BME280;4647;48.072;11.616;2023-12-22T07:08:01;93996.91;;;4.70;93.67
9225;BME280;4647;48.072;11.616;2023-12-22T07:10:29;93993.91;;;4.65;93.35
9225;BME280;4647;48.072;11.616;2023-12-22T07:12:58;93996.38;;;4.82;92.51
9225;BME280;4647;48.072;11.616;2023-12-22T07:15:27;94003.34;;;4.76;93.66
9225;BME280;4647;48.072;11.616;2023-12-22T07:17:55;93972.75;;;4.70;93.04
9225;BME280;4647;48.072;11.616;2023-12-22T07:20:24;94000.63;;;4.80;93.26
9225;BME280;4647;48.072;11.616;2023-12-22T07:22:52;94004.13;;;4.77;93.18
9225;BME280;4647;48.072;11.616;2023-12-22T07:25:26;93997.22;;;4.76;93.54
9225;BME280;4647;48.072;11.616;2023-12-22T07:27:54;94010.81;;;4.61;93.57
9225;BME280;4647;48.072;11.616;2023-12-22T07:30:23;94013.09;;;4.63;93.63
9225;BME280;4647;48.072;11.616;2023-12-22T07:32:51;94013.94;;;4.56;94.92
9225;BME280;4647;48.072;11.616;2023-12-22T07:35:20;94040.06;;;4.49;95.32
9225;BME280;4647;48.072;11.616;2023-12-22T07:37:48;94071.47;;;4.52;96.14
9225;BME280;4647;48.072;11.616;2023-12-22T07:40:17;94070.41;;;4.42;96.50
9225;BME280;4647;48.072;11.616;2023-12-22T07:42:50;94066.47;;;4.54;94.84
9225;BME280;4647;48.072;11.616;2023-12-22T07:45:20;94065.22;;;4.62;95.49
9225;BME280;4647;48.072;11.616;2023-12-22T07:47:48;94053.38;;;4.59;94.14
9225;BME280;4647;48.072;11.616;2023-12-22T07:50:17;94042.69;;;4.56;94.22
9225;BME280;4647;48.072;11.616;2023-12-22T07:52:49;94046.84;;;4.60;94.47
9225;BME280;4647;48.072;11.616;2023-12-22T07:55:17;94036.06;;;4.64;94.08
9225;BME280;4647;48.072;11.616;2023-12-22T07:57:48;94034.44;;;4.70;93.55
9225;BME280;4647;48.072;11.616;2023-12-22T08:00:17;94021.78;;;4.74;93.14
9225;BME280;4647;48.072;11.616;2023-12-22T08:02:46;94018.84;;;4.92;91.96
9225;BME280;4647;48.072;11.616;2023-12-22T08:05:14;93998.84;;;4.97;91.20
9225;BME280;4647;48.072;11.616;2023-12-22T08:07:44;94052.44;;;5.04;91.17
9225;BME280;4647;48.072;11.616;2023-12-22T08:10:13;94063.19;;;5.04;89.92
9225;BME280;4647;48.072;11.616;2023-12-22T08:12:44;94115.34;;;5.03;90.48
9225;BME280;4647;48.072;11.616;2023-12-22T08:15:15;94095.41;;;5.04;90.05
9225;BME280;4647;48.072;11.616;2023-12-22T08:17:46;94134.66;;;4.90;90.64
9225;BME280;4647;48.072;11.616;2023-12-22T08:20:20;94142.94;;;4.69;92.64
9225;BME280;4647;48.072;11.616;2023-12-22T08:22:50;94160.38;;;4.47;93.47
9225;BME280;4647;48.072;11.616;2023-12-22T08:25:16;94165.91;;;3.77;94.51
9225;BME280;4647;48.072;11.616;2023-12-22T08:27:45;94155.75;;;3.51;97.87
9225;BME280;4647;48.072;11.616;2023-12-22T08:30:17;94158.78;;;3.56;99.20
9225;BME280;4647;48.072;11.616;2023-12-22T08:32:45;94148.81;;;3.60;99.29
9225;BME280;4647;48.072;11.616;2023-12-22T08:35:14;94170.09;;;3.78;99.37
9225;BME280;4647;48.072;11.616;2023-12-22T08:37:44;94153.66;;;3.80;99.56
9225;BME280;4647;48.072;11.616;2023-12-22T08:40:13;94146.78;;;3.79;99.85
9225;BME280;4647;48.072;11.616;2023-12-22T08:42:41;94140.97;;;3.87;100.00
9225;BME280;4647;48.072;11.616;2023-12-22T08:45:12;94139.56;;;4.20;99.18
9225;BME280;4647;48.072;11.616;2023-12-22T08:47:44;94136.31;;;4.40;97.70
9225;BME280;4647;48.072;11.616;2023-12-22T08:50:13;94189.19;;;4.39;97.70
9225;BME280;4647;48.072;11.616;2023-12-22T08:52:42;94158.56;;;4.37;97.58
9225;BME280;4647;48.072;11.616;2023-12-22T08:55:10;94158.97;;;4.35;97.72
9225;BME280;4647;48.072;11.616;2023-12-22T08:57:39;94159.44;;;4.26;98.61
9225;BME280;4647;48.072;11.616;2023-12-22T09:00:10;94155.97;;;4.29;99.11
9225;BME280;4647;48.072;11.616;2023-12-22T09:02:39;94184.28;;;4.30;99.01
9225;BME280;4647;48.072;11.616;2023-12-22T09:05:11;94162.41;;;4.36;98.59
9225;BME280;4647;48.072;11.616;2023-12-22T09:07:40;94171.91;;;4.44;98.63
9225;BME280;4647;48.072;11.616;2023-12-22T09:10:13;94198.69;;;4.47;97.53
9225;BME280;4647;48.072;11.616;2023-12-22T09:12:41;94180.69;;;4.48;98.02
9225;BME280;4647;48.072;11.616;2023-12-22T09:15:10;94185.97;;;4.58;97.58
9225;BME280;4647;48.072;11.616;2023-12-22T09:17:39;94172.19;;;4.56;97.45
9225;BME280;4647;48.072;11.616;2023-12-22T09:20:11;94193.25;;;4.58;97.88
9225;BME280;4647;48.072;11.616;2023-12-22T09:22:40;94175.97;;;4.62;97.11
9225;BME280;4647;48.072;11.616;2023-12-22T09:25:11;94158.22;;;4.72;95.85
9225;BME280;4647;48.072;11.616;2023-12-22T09:27:39;94156.84;;;4.94;95.27
9225;BME280;4647;48.072;11.616;2023-12-22T09:30:10;94140.72;;;4.94;94.82
9225;BME280;4647;48.072;11.616;2023-12-22T09:32:39;94146.78;;;5.02;94.10
9225;BME280;4647;48.072;11.616;2023-12-22T09:35:13;94170.94;;;5.02;93.34
9225;BME280;4647;48.072;11.616;2023-12-22T09:37:42;94154.34;;;5.11;93.12
9225;BME280;4647;48.072;11.616;2023-12-22T09:40:11;94162.00;;;5.12;93.18
9225;BME280;4647;48.072;11.616;2023-12-22T09:42:40;94171.63;;;5.10;92.10
9225;BME280;4647;48.072;11.616;2023-12-22T09:45:11;94138.97;;;5.15;92.70
9225;BME280;4647;48.072;11.616;2023-12-22T09:47:43;94158.09;;;5.20;92.58
9225;BME280;4647;48.072;11.616;2023-12-22T09:50:15;94157.09;;;5.07;92.46
9225;BME280;4647;48.072;11.616;2023-12-22T09:52:44;94154.31;;;5.14;92.84
9225;BME280;4647;48.072;11.616;2023-12-22T09:55:13;94180.00;;;5.15;91.98
9225;BME280;4647;48.072;11.616;2023-12-22T09:57:42;94166.22;;;5.13;91.94
9225;BME280;4647;48.072;11.616;2023-12-22T10:00:14;94187.50;;;4.97;91.91
9225;BME280;4647;48.072;11.616;2023-12-22T10:02:43;94178.38;;;4.87;91.87
9225;BME280;4647;48.072;11.616;2023-12-22T10:05:19;94168.19;;;4.75;92.76
9225;BME280;4647;48.072;11.616;2023-12-22T10:07:50;94153.41;;;4.56;92.98
9225;BME280;4647;48.072;11.616;2023-12-22T10:10:25;94179.94;;;4.44;93.03
9225;BME280;4647;48.072;11.616;2023-12-22T10:12:54;94209.94;;;4.31;93.76
9225;BME280;4647;48.072;11.616;2023-12-22T10:15:23;94181.31;;;4.18;95.32
9225;BME280;4647;48.072;11.616;2023-12-22T10:17:55;94166.13;;;4.04;96.68
9225;BME280;4647;48.072;11.616;2023-12-22T10:20:26;94179.28;;;3.84;97.48
9225;BME280;4647;48.072;11.616;2023-12-22T10:22:56;94178.53;;;3.77;98.71
9225;BME280;4647;48.072;11.616;2023-12-22T10:25:27;94162.53;;;3.69;98.97
9225;BME280;4647;48.072;11.616;2023-12-22T10:27:58;94150.75;;;3.56;100.00
9225;BME280;4647;48.072;11.616;2023-12-22T10:30:27;94153.44;;;3.56;100.00
9225;BME280;4647;48.072;11.616;2023-12-22T10:33:00;94150.34;;;3.61;100.00
9225;BME280;4647;48.072;11.616;2023-12-22T10:35:37;94142.31;;;3.61;100.00
9225;BME280;4647;48.072;11.616;2023-12-22T10:38:07;94131.22;;;3.59;100.00
9225;BME280;4647;48.072;11.616;2023-12-22T10:40:37;94120.06;;;3.68;100.00
9225;BME280;4647;48.072;11.616;2023-12-22T10:43:05;94129.59;;;3.73;100.00
9225;BME280;4647;48.072;11.616;2023-12-22T10:45:34;94126.94;;;3.69;100.00
9225;BME280;4647;48.072;11.616;2023-12-22T10:48:03;94112.72;;;3.76;100.00
9225;BME280;4647;48.072;11.616;2023-12-22T10:50:35;94097.47;;;3.69;100.00
9225;BME280;4647;48.072;11.616;2023-12-22T10:53:06;94098.56;;;3.75;100.00
9225;BME280;4647;48.072;11.616;2023-12-22T10:55:34;94095.44;;;3.87;100.00
9225;BME280;4647;48.072;11.616;2023-12-22T10:58:03;94090.28;;;4.07;100.00
9225;BME280;4647;48.072;11.616;2023-12-22T11:00:37;94087.47;;;4.21;100.00
9225;BME280;4647;48.072;11.616;2023-12-22T11:03:07;94083.81;;;4.42;100.00
9225;BME280;4647;48.072;11.616;2023-12-22T11:05:44;94088.16;;;4.67;100.00
9225;BME280;4647;48.072;11.616;2023-12-22T11:08:17;94078.50;;;4.73;99.92
9225;BME280;4647;48.072;11.616;2023-12-22T11:10:50;94084.97;;;4.79;100.00
9225;BME280;4647;48.072;11.616;2023-12-22T11:13:22;94110.28;;;4.78;99.75
9225;BME280;4647;48.072;11.616;2023-12-22T11:15:52;94097.16;;;4.83;100.00
9225;BME280;4647;48.072;11.616;2023-12-22T11:18:22;94104.50;;;4.79;100.00
9225;BME280;4647;48.072;11.616;2023-12-22T11:20:54;94100.75;;;4.70;100.00
9225;BME280;4647;48.072;11.616;2023-12-22T11:23:25;94104.16;;;4.77;100.00
9225;BME280;4647;48.072;11.616;2023-12-22T11:25:54;94105.66;;;4.78;99.98
9225;BME280;4647;48.072;11.616;2023-12-22T11:28:23;94124.75;;;4.84;99.68
9225;BME280;4647;48.072;11.616;2023-12-22T11:30:52;94099.44;;;4.85;100.00
9225;BME280;4647;48.072;11.616;2023-12-22T11:33:25;94089.78;;;4.91;100.00
9225;BME280;4647;48.072;11.616;2023-12-22T11:35:57;94080.25;;;4.86;99.59
9225;BME280;4647;48.072;11.616;2023-12-22T11:38:26;94102.31;;;5.01;98.97
9225;BME280;4647;48.072;11.616;2023-12-22T11:40:58;94106.66;;;4.91;99.34
9225;BME280;4647;48.072;11.616;2023-12-22T11:43:31;94091.75;;;4.87;100.00
9225;BME280;4647;48.072;11.616;2023-12-22T11:46:03;94101.69;;;4.90;99.21
9225;BME280;4647;48.072;11.616;2023-12-22T11:48:32;94098.63;;;4.88;100.00
9225;BME280;4647;48.072;11.616;2023-12-22T11:51:14;94091.41;;;4.85;99.97
9225;BME280;4647;48.072;11.616;2023-12-22T11:53:43;94093.69;;;4.86;99.86
9225;BME280;4647;48.072;11.616;2023-12-22T11:56:12;94105.97;;;4.84;100.00
9225;BME280;4647;48.072;11.616;2023-12-22T11:58:44;94097.97;;;4.80;100.00
9225;BME280;4647;48.072;11.616;2023-12-22T12:01:17;94104.72;;;4.92;100.00
9225;BME280;4647;48.072;11.616;2023-12-22T12:03:49;94091.41;;;4.85;100.00
9225;BME280;4647;48.072;11.616;2023-12-22T12:06:32;94099.84;;;4.83;99.91
9225;BME280;4647;48.072;11.616;2023-12-22T12:09:06;94083.41;;;4.81;100.00
9225;BME280;4647;48.072;11.616;2023-12-22T12:12:08;94105.13;;;4.90;100.00
9225;BME280;4647;48.072;11.616;2023-12-22T12:14:41;94098.53;;;4.99;100.00
9225;BME280;4647;48.072;11.616;2023-12-22T12:17:15;94097.00;;;4.98;99.87
9225;BME280;4647;48.072;11.616;2023-12-22T12:19:47;94085.88;;;4.96;100.00
9225;BME280;4647;48.072;11.616;2023-12-22T12:22:20;94085.78;;;5.06;100.00
9225;BME280;4647;48.072;11.616;2023-12-22T12:24:50;94078.13;;;5.05;100.00
9225;BME280;4647;48.072;11.616;2023-12-22T12:27:19;94090.44;;;5.02;100.00
9225;BME280;4647;48.072;11.616;2023-12-22T12:29:47;94083.13;;;5.03;99.92
9225;BME280;4647;48.072;11.616;2023-12-22T12:32:17;94059.78;;;5.00;100.00
9225;BME280;4647;48.072;11.616;2023-12-22T12:34:46;94061.25;;;5.04;100.00
9225;BME280;4647;48.072;11.616;2023-12-22T12:37:16;94065.56;;;4.98;100.00
9225;BME280;4647;48.072;11.616;2023-12-22T12:39:48;94043.34;;;4.98;100.00
9225;BME280;4647;48.072;11.616;2023-12-22T12:42:21;94054.25;;;5.10;99.75
9225;BME280;4647;48.072;11.616;2023-12-22T12:44:52;94049.41;;;5.02;100.00
9225;BME280;4647;48.072;11.616;2023-12-22T12:47:21;94033.66;;;5.04;100.00
9225;BME280;4647;48.072;11.616;2023-12-22T12:49:56;94042.00;;;5.09;100.00
9225;BME280;4647;48.072;11.616;2023-12-22T12:52:23;94032.75;;;5.14;99.81
9225;BME280;4647;48.072;11.616;2023-12-22T12:54:54;94030.09;;;5.10;100.00
9225;BME280;4647;48.072;11.616;2023-12-22T12:57:24;94024.75;;;5.10;100.00
9225;BME280;4647;48.072;11.616;2023-12-22T12:59:52;93999.00;;;5.13;99.34
9225;BME280;4647;48.072;11.616;2023-12-22T13:02:21;94010.16;;;5.11;99.41
9225;BME280;4647;48.072;11.616;2023-12-22T13:04:50;94010.50;;;5.13;98.83
9225;BME280;4647;48.072;11.616;2023-12-22T13:07:25;94014.88;;;5.04;98.78
9225;BME280;4647;48.072;11.616;2023-12-22T13:09:56;93999.94;;;5.03;99.18
9225;BME280;4647;48.072;11.616;2023-12-22T13:12:26;93995.03;;;4.94;98.98
9225;BME280;4647;48.072;11.616;2023-12-22T13:15:01;93988.50;;;4.95;99.81
9225;BME280;4647;48.072;11.616;2023-12-22T13:17:31;93981.38;;;4.85;98.81
9225;BME280;4647;48.072;11.616;2023-12-22T13:20:00;93971.47;;;4.82;99.21
9225;BME280;4647;48.072;11.616;2023-12-22T13:22:29;93959.22;;;4.81;99.58
9225;BME280;4647;48.072;11.616;2023-12-22T13:25:00;93978.34;;;4.83;99.72
9225;BME280;4647;48.072;11.616;2023-12-22T13:27:29;93975.78;;;4.72;99.97
9225;BME280;4647;48.072;11.616;2023-12-22T13:29:58;93976.94;;;4.71;100.00
9225;BME280;4647;48.072;11.616;2023-12-22T13:32:26;93976.16;;;4.74;100.00
9225;BME280;4647;48.072;11.616;2023-12-22T13:34:55;93957.00;;;4.72;100.00
9225;BME280;4647;48.072;11.616;2023-12-22T13:37:24;93956.25;;;4.72;100.00
9225;BME280;4647;48.072;11.616;2023-12-22T13:39:56;93966.16;;;4.78;100.00
9225;BME280;4647;48.072;11.616;2023-12-22T13:42:28;93964.63;;;4.77;100.00
9225;BME280;4647;48.072;11.616;2023-12-22T13:44:56;93953.09;;;4.80;100.00
9225;BME280;4647;48.072;11.616;2023-12-22T13:47:25;93934.66;;;4.82;100.00
9225;BME280;4647;48.072;11.616;2023-12-22T13:49:53;93926.84;;;4.91;100.00
9225;BME280;4647;48.072;11.616;2023-12-22T13:52:27;93908.06;;;4.91;100.00
9225;BME280;4647;48.072;11.616;2023-12-22T13:54:57;93899.31;;;4.87;100.00